Time;durP1;ratioP1;P1;durP2;ratioP2;P2;SDS_P1;SDS_P2;PMS_P1;PMS_P2;Temp;Humidity;BMP_temperature;BMP_pressure;BME280_temperature;BME280_humidity;BME280_pressure;Samples;Min_cycle;Max_cycle;Signal;HPM_P1;HPM_P2
2023/10/09 00:03:10;;;;;;;1.60;0.37;;;10.10;69.70;;;8.67;54.81;101134.41;10179513;28;97477;-85
2023/10/09 00:08:39;;;;;;;1.07;0.40;;;10.10;70.00;;;8.64;54.60;101107.38;10229291;28;96502;-85
2023/10/09 00:13:51;;;;;;;1.30;0.43;;;10.10;70.40;;;8.68;54.48;101119.34;10200743;28;98513;-84
2023/10/09 00:18:57;;;;;;;1.37;0.50;;;10.10;70.00;;;8.69;54.98;101124.50;10222121;28;96804;-85
2023/10/09 00:24:05;;;;;;;0.63;0.20;;;10.10;70.20;;;8.75;55.28;101116.03;10224502;28;96960;-85
2023/10/09 00:29:15;;;;;;;0.70;0.30;;;10.20;70.40;;;8.78;55.85;101110.47;10197305;28;96460;-85
2023/10/09 00:34:19;;;;;;;2.13;0.60;;;10.20;70.70;;;8.80;55.90;101099.72;10206882;28;96685;-85
2023/10/09 00:44:41;;;;;;;1.33;0.43;;;10.30;70.90;;;8.88;56.49;101104.38;10187977;28;96564;-84
2023/10/09 00:49:45;;;;;;;1.83;0.60;;;10.30;71.10;;;8.94;56.16;101101.19;10172093;28;97283;-85
2023/10/09 00:54:51;;;;;;;1.33;0.50;;;10.30;70.90;;;8.98;55.92;101094.63;10188992;28;97677;-85
2023/10/09 01:00:07;;;;;;;1.07;0.27;;;10.40;71.10;;;8.99;55.72;101086.53;10200832;28;97630;-85
2023/10/09 01:05:20;;;;;;;2.93;0.43;;;10.40;71.00;;;9.05;55.54;101093.09;10171696;28;98804;-85
2023/10/09 01:10:26;;;;;;;0.77;0.30;;;10.40;70.90;;;9.10;55.23;101098.84;10183621;28;96576;-85
2023/10/09 01:15:44;;;;;;;1.73;0.57;;;10.50;70.90;;;9.13;55.36;101108.34;10177543;28;97710;-85
2023/10/09 01:20:48;;;;;;;1.30;0.50;;;10.50;71.00;;;9.18;55.64;101106.97;10148045;28;96556;-85
2023/10/09 01:25:52;;;;;;;2.50;0.50;;;10.60;71.10;;;9.21;56.25;101109.34;10133054;28;96577;-85
2023/10/09 01:30:56;;;;;;;2.13;0.40;;;10.60;71.40;;;9.23;56.33;101106.53;10134699;28;97023;-84
2023/10/09 01:36:00;;;;;;;1.57;0.70;;;10.60;71.50;;;9.22;55.47;101096.91;10186085;28;96463;-85
2023/10/09 01:41:07;;;;;;;1.23;0.40;;;10.60;71.20;;;9.22;55.25;101102.22;10146172;28;96638;-85
2023/10/09 01:46:16;;;;;;;0.73;0.27;;;10.60;71.10;;;9.21;55.37;101106.69;10131403;28;97693;-84
2023/10/09 01:51:20;;;;;;;0.50;0.30;;;10.60;71.10;;;9.22;55.06;101116.31;10138429;28;96651;-85
2023/10/09 01:56:23;;;;;;;1.40;0.30;;;10.60;71.10;;;9.20;55.32;101115.63;10153479;28;96625;-85
2023/10/09 02:01:27;;;;;;;1.60;0.40;;;10.50;71.10;;;9.20;55.51;101109.47;10140008;28;97204;-85
2023/10/09 02:06:32;;;;;;;0.57;0.30;;;10.50;71.40;;;9.20;55.44;101104.16;10154570;28;96579;-85
2023/10/09 02:11:41;;;;;;;1.20;0.30;;;10.60;71.40;;;9.25;55.57;101118.69;10206447;28;98241;-86
2023/10/09 02:17:24;;;;;;;0.63;0.30;;;10.60;71.30;;;9.24;55.50;101116.19;10226032;28;98014;-85
2023/10/09 02:22:17;;;;;;;1.37;0.43;;;10.70;71.30;;;9.25;56.31;101110.75;10209233;28;96901;-85
2023/10/09 02:27:59;;;;;;;0.87;0.40;;;10.60;71.40;;;9.25;56.31;101086.03;10214919;28;96487;-85
2023/10/09 02:32:53;;;;;;;0.83;0.30;;;10.70;71.70;;;9.23;56.69;101070.25;10193508;28;99019;-85
2023/10/09 02:37:58;;;;;;;1.00;0.60;;;10.70;72.10;;;9.16;58.47;101055.03;10194052;28;96506;-85
2023/10/09 02:43:02;;;;;;;1.20;0.37;;;10.60;72.90;;;9.13;58.77;101052.66;10187854;28;97005;-85
2023/10/09 02:48:10;;;;;;;0.97;0.40;;;10.60;73.20;;;9.11;59.67;101064.22;10191031;28;96740;-85
2023/10/09 02:53:29;;;;;;;0.87;0.30;;;10.50;73.60;;;9.13;59.50;101064.09;10191488;28;96659;-85
2023/10/09 02:58:36;;;;;;;2.00;0.67;;;10.50;73.60;;;9.15;59.70;101058.66;10195230;28;96839;-86
2023/10/09 03:03:48;;;;;;;1.43;0.50;;;10.60;73.60;;;9.17;59.91;101040.78;10214649;28;96879;-86
2023/10/09 03:08:54;;;;;;;1.27;0.50;;;10.60;74.00;;;9.16;60.66;101061.16;10174527;28;96715;-85
2023/10/09 03:13:58;;;;;;;4.90;1.67;;;10.60;74.10;;;9.18;60.64;101040.66;10176498;28;96828;-85
2023/10/09 03:19:03;;;;;;;1.60;0.60;;;10.60;74.30;;;9.23;61.04;101045.53;10205781;28;97099;-85
2023/10/09 03:24:08;;;;;;;1.97;0.40;;;10.60;74.70;;;9.22;61.58;101057.13;10185142;28;96767;-85
2023/10/09 03:29:12;;;;;;;2.70;0.60;;;10.60;75.10;;;9.23;61.75;101058.78;10219342;28;96658;-85
2023/10/09 03:34:18;;;;;;;2.00;0.50;;;10.60;75.40;;;9.23;62.08;101082.66;10200026;28;98426;-85
2023/10/09 03:44:43;;;;;;;1.70;0.77;;;10.60;75.50;;;9.26;61.82;101056.72;10203889;28;97369;-85
2023/10/09 03:49:46;;;;;;;1.37;0.70;;;10.70;75.70;;;9.26;62.04;101056.72;10214168;28;96560;-85
2023/10/09 03:54:50;;;;;;;2.20;0.73;;;10.70;75.60;;;9.30;61.85;101050.16;10189551;28;97162;-86
2023/10/09 03:59:55;;;;;;;1.57;0.57;;;10.70;75.40;;;9.31;61.93;101043.88;10206764;28;96617;-86
2023/10/09 04:04:59;;;;;;;1.77;0.73;;;10.70;75.60;;;9.27;62.67;101047.78;10178878;28;97163;-86
2023/10/09 04:10:32;;;;;;;3.57;1.10;;;10.70;76.10;;;9.24;62.41;101048.06;10191439;28;96906;-85
2023/10/09 04:15:30;;;;;;;1.77;0.70;;;10.70;76.40;;;9.22;61.92;101050.00;10195206;28;96751;-85
2023/10/09 04:25:59;;;;;;;2.20;1.33;;;10.60;76.10;;;9.23;61.91;101030.47;10200996;28;96547;-85
2023/10/09 04:31:06;;;;;;;3.17;0.70;;;10.60;75.90;;;9.18;61.13;101038.03;10174060;28;96743;-86
2023/10/09 04:36:46;;;;;;;1.70;0.80;;;10.60;76.00;;;9.21;60.92;101018.31;10203355;28;96667;-85
2023/10/09 04:47:35;;;;;;;2.40;0.80;;;10.60;75.60;;;9.28;60.27;101017.63;10190943;28;96808;-86
2023/10/09 04:53:22;;;;;;;2.90;1.20;;;10.70;75.30;;;9.34;56.92;101013.56;10214908;28;96655;-86
2023/10/09 04:57:46;;;;;;;2.60;0.93;;;10.70;74.10;;;9.40;55.67;101010.38;10182627;28;96923;-86
2023/10/09 05:02:56;;;;;;;2.77;0.93;;;10.80;73.10;;;9.47;54.30;101000.03;10200410;28;96948;-85
2023/10/09 05:08:16;;;;;;;2.17;0.97;;;10.80;72.30;;;9.56;53.41;100999.19;10202925;28;97283;-85
2023/10/09 05:13:42;;;;;;;1.40;0.60;;;10.90;71.60;;;9.66;53.57;101010.63;10168289;28;97561;-85
2023/10/09 05:18:56;;;;;;;1.73;0.90;;;11.00;71.20;;;9.73;52.56;100992.31;10202873;28;96599;-86
2023/10/09 05:24:43;;;;;;;3.67;1.23;;;11.10;70.90;;;9.79;51.93;100987.28;10229187;28;96973;-86
2023/10/09 06:07:00;;;;;;;1.10;0.27;;;11.50;67.70;;;10.18;49.97;100965.88;10185695;28;96705;-85
2023/10/09 06:17:43;;;;;;;1.47;0.40;;;11.60;66.60;;;10.23;48.79;100942.41;10188921;28;96585;-85
2023/10/09 06:23:15;;;;;;;1.10;0.40;;;11.60;65.90;;;10.26;47.66;100949.28;10215722;28;97372;-85
2023/10/09 06:28:32;;;;;;;2.90;0.57;;;11.60;64.70;;;10.27;47.00;100950.94;10195192;28;96743;-85
2023/10/09 06:33:58;;;;;;;1.70;0.57;;;11.70;64.60;;;10.31;46.70;100952.28;10218817;28;98116;-84
2023/10/09 06:44:51;;;;;;;0.80;0.40;;;11.80;63.70;;;10.38;45.67;100948.91;10201064;28;98335;-85
2023/10/09 06:50:12;;;;;;;1.60;0.50;;;11.80;62.50;;;10.40;45.25;100944.28;10226886;28;96704;-84
2023/10/09 06:55:19;;;;;;;1.37;0.63;;;11.80;61.30;;;10.45;45.30;100938.53;10183215;28;96747;-85
2023/10/09 07:06:04;;;;;;;4.77;0.80;;;11.90;61.20;;;10.57;44.34;100932.03;10200793;28;97477;-85
2023/10/09 07:11:57;;;;;;;1.53;0.53;;;11.90;61.00;;;10.63;43.64;100925.28;10219624;28;96751;-87
2023/10/09 07:27:46;;;;;;;1.63;0.57;;;12.00;59.30;;;10.77;43.28;100844.97;10184108;28;97312;-87
2023/10/09 07:32:52;;;;;;;1.23;0.57;;;12.10;58.80;;;10.87;43.29;100856.38;10221434;28;97699;-86
2023/10/09 07:37:56;;;;;;;3.70;1.03;;;12.20;59.20;;;10.97;43.79;100846.50;10211317;28;96715;-87
2023/10/09 07:43:05;;;;;;;2.27;0.80;;;12.30;59.50;;;11.11;43.34;100849.59;10224319;28;96625;-87
2023/10/09 07:48:14;;;;;;;1.67;0.60;;;12.40;59.20;;;11.21;42.59;100850.28;10195352;28;96448;-87
2023/10/09 07:53:18;;;;;;;0.90;0.50;;;12.50;58.60;;;11.24;42.56;100842.03;10213586;28;96430;-86
2023/10/09 07:58:25;;;;;;;2.93;0.50;;;12.60;58.60;;;11.35;42.23;100857.72;10212602;28;96449;-86
2023/10/09 08:03:32;;;;;;;2.57;0.50;;;12.70;58.00;;;11.35;41.80;100833.78;10212786;28;96604;-85
2023/10/09 08:08:55;;;;;;;0.67;0.33;;;12.70;57.90;;;11.34;41.79;100845.41;10239462;28;97008;-86
2023/10/09 08:14:07;;;;;;;1.73;0.40;;;12.70;57.90;;;11.43;42.57;100819.66;10245618;28;96411;-86
2023/10/09 08:24:40;;;;;;;2.03;0.50;;;12.80;58.70;;;11.52;42.84;100816.91;10210118;28;96754;-86
2023/10/09 08:29:47;;;;;;;2.07;0.77;;;12.90;58.80;;;11.56;42.73;100805.94;10253965;28;96806;-85
2023/10/09 08:34:53;;;;;;;4.63;0.83;;;12.90;59.00;;;11.51;42.10;100791.28;10216039;28;96697;-86
2023/10/09 08:40:07;;;;;;;2.90;0.77;;;12.90;58.50;;;11.54;42.79;100792.78;10199170;28;97483;-85
2023/10/09 08:45:14;;;;;;;6.77;0.60;;;12.90;58.70;;;11.56;42.25;100796.13;10203287;28;98128;-86
2023/10/09 08:50:19;;;;;;;0.90;0.40;;;12.90;58.30;;;11.58;42.36;100769.34;10202188;28;96857;-85
2023/10/09 08:55:23;;;;;;;1.70;0.40;;;12.90;58.40;;;11.57;42.03;100754.34;10205952;28;96647;-85
2023/10/09 09:00:33;;;;;;;1.50;0.40;;;13.00;58.00;;;11.60;42.12;100746.91;10172258;28;96569;-85
2023/10/09 09:05:36;;;;;;;2.90;0.60;;;13.00;58.30;;;11.65;42.61;100752.56;10207923;28;98498;-85
2023/10/09 09:10:46;;;;;;;2.70;0.57;;;13.00;58.50;;;11.71;42.18;100745.78;10216216;28;98642;-85
2023/10/09 09:15:55;;;;;;;2.70;0.50;;;13.10;57.90;;;11.74;42.24;100743.59;10177803;28;97667;-85
2023/10/09 09:20:59;;;;;;;1.30;0.50;;;13.10;58.10;;;11.84;42.12;100735.50;10199356;28;96739;-85
2023/10/09 09:26:10;;;;;;;1.43;0.50;;;13.20;58.20;;;11.93;42.09;100733.69;10212360;28;96549;-85
2023/10/09 09:31:15;;;;;;;1.65;0.65;;;13.30;58.30;;;12.08;41.53;100724.06;10232631;28;97056;-85
2023/10/09 09:36:19;;;;;;;0.80;0.50;;;13.40;57.50;;;12.20;41.23;100728.06;10215024;28;96502;-85
2023/10/09 09:41:25;;;;;;;1.87;0.70;;;13.60;57.30;;;12.35;41.35;100719.41;10209500;28;96865;-86
2023/10/09 09:46:33;;;;;;;2.33;0.80;;;13.70;57.60;;;12.60;41.32;100726.41;10192208;28;99006;-86
2023/10/09 09:51:38;;;;;;;1.70;0.80;;;13.90;57.70;;;12.73;40.63;100717.91;10173054;28;96528;-85
2023/10/09 09:56:52;;;;;;;3.03;0.60;;;14.10;57.20;;;12.95;40.49;100706.50;10217210;28;98250;-85
2023/10/09 10:02:06;;;;;;;2.27;0.70;;;14.30;57.10;;;13.37;39.94;100716.06;10224260;28;96559;-85
2023/10/09 10:07:15;;;;;;;1.10;0.60;;;14.60;56.90;;;13.74;38.52;100674.50;10225546;28;96827;-85
2023/10/09 10:12:48;;;;;;;1.67;0.65;;;15.00;55.00;;;13.63;38.03;100636.50;10227252;28;96455;-86
2023/10/09 10:18:00;;;;;;;1.97;0.60;;;15.00;54.40;;;13.44;40.27;100606.78;10201436;28;96700;-85
2023/10/09 10:23:18;;;;;;;1.67;0.60;;;14.90;56.20;;;13.36;40.33;100608.47;10193410;28;96532;-85
2023/10/09 10:28:28;;;;;;;1.60;0.70;;;14.70;56.60;;;13.43;40.20;100562.38;10202286;28;96797;-85
2023/10/09 10:33:54;;;;;;;1.30;0.80;;;14.80;56.40;;;13.97;39.65;100557.75;10209472;28;97490;-86
2023/10/09 10:39:11;;;;;;;3.20;0.60;;;15.30;56.50;;;14.52;38.38;100542.38;10223063;28;96581;-86
2023/10/09 10:44:38;;;;;;;1.60;0.45;;;15.90;55.00;;;14.99;37.29;100501.78;10224056;28;97450;-86
2023/10/09 10:49:49;;;;;;;2.83;0.70;;;16.50;54.00;;;15.52;36.50;100542.47;10197811;28;96589;-87
2023/10/09 10:55:17;;;;;;;2.95;0.63;;;17.00;53.10;;;15.97;35.49;100505.59;10186586;28;96577;-86
2023/10/09 11:05:50;;;;;;;3.78;0.75;;;17.90;51.90;;;16.61;34.54;100524.09;10210547;28;96910;-87
2023/10/09 11:11:15;;;;;;;1.50;0.60;;;18.30;51.20;;;16.86;33.59;100484.22;10203295;28;98981;-87
2023/10/09 11:16:41;;;;;;;2.03;0.80;;;18.80;49.10;;;17.03;33.81;100536.50;10203829;28;98560;-87
2023/10/09 11:21:46;;;;;;;1.67;0.63;;;19.00;50.10;;;17.35;33.66;100531.41;10223263;28;97079;-86
2023/10/09 11:26:55;;;;;;;1.75;0.65;;;19.40;51.00;;;17.99;33.36;100473.56;10215290;28;96518;-87
2023/10/09 11:32:17;;;;;;;8.00;2.87;;;20.00;50.30;;;18.59;33.40;100480.44;10204004;28;96553;-87
2023/10/09 11:42:38;;;;;;;2.17;0.50;;;20.80;49.90;;;18.53;31.89;100480.44;10226826;28;96620;-87
2023/10/09 11:47:54;;;;;;;1.65;0.55;;;20.30;49.30;;;18.08;32.13;100450.78;10229113;28;96608;-86
2023/10/09 11:58:22;;;;;;;2.20;0.60;;;18.90;51.30;;;16.69;37.46;100462.25;10188200;28;96799;-87
2023/10/09 12:03:30;;;;;;;2.22;0.75;;;18.30;53.20;;;16.26;38.90;100437.50;10173840;28;97869;-86
2023/10/09 12:08:34;;;;;;;6.57;1.30;;;17.80;54.40;;;15.85;41.29;100419.56;10226974;28;96805;-87
2023/10/09 12:13:39;;;;;;;1.77;0.60;;;17.40;56.20;;;15.44;42.29;100447.03;10196767;28;96791;-86
2023/10/09 12:18:52;;;;;;;8.70;2.20;;;17.00;56.80;;;15.11;43.10;100444.06;10227683;28;96778;-86
2023/10/09 12:23:57;;;;;;;4.82;1.55;;;16.60;57.40;;;14.92;44.37;100420.59;10221357;28;97089;-86
2023/10/09 12:29:10;;;;;;;7.93;1.83;;;16.30;58.50;;;14.90;45.29;100417.31;10219134;28;97625;-86
2023/10/09 12:34:16;;;;;;;1.45;0.60;;;16.30;59.40;;;14.94;44.72;100421.28;10202932;28;97625;-86
2023/10/09 12:39:24;;;;;;;1.80;0.45;;;16.30;59.30;;;14.87;44.36;100425.69;10191987;28;98110;-87
2023/10/09 12:44:27;;;;;;;1.83;0.90;;;16.20;59.20;;;14.73;45.88;100436.25;10240546;28;96640;-86
2023/10/09 12:49:31;;;;;;;0.65;0.40;;;16.10;60.50;;;14.65;47.46;100432.88;10179397;28;97217;-88
2023/10/09 12:54:35;;;;;;;1.38;0.50;;;16.00;60.80;;;14.54;49.47;100436.88;10218033;28;96760;-87
2023/10/09 12:59:45;;;;;;;1.45;0.55;;;15.90;62.60;;;14.38;50.03;100445.06;10197473;28;97374;-87
2023/10/09 13:04:49;;;;;;;1.05;0.57;;;15.70;63.20;;;14.23;51.76;100449.63;10209772;28;96740;-86
2023/10/09 13:10:08;;;;;;;2.17;0.52;;;15.60;64.40;;;14.10;51.96;100442.25;10234395;28;96709;-87
2023/10/09 13:15:13;;;;;;;2.57;1.00;;;15.40;64.70;;;13.99;53.54;100430.19;10207959;28;96737;-87
2023/10/09 13:20:19;;;;;;;10.43;4.63;;;15.30;65.80;;;13.94;55.28;100437.91;10201415;28;96764;-86
2023/10/09 13:25:26;;;;;;;26.73;10.32;;;15.30;67.20;;;13.86;55.80;100417.47;10221141;28;99282;-87
2023/10/09 13:30:49;;;;;;;8.63;3.90;;;15.10;67.80;;;13.77;56.62;100412.38;10208122;28;98262;-87
2023/10/09 13:35:52;;;;;;;3.40;1.33;;;15.10;68.60;;;13.69;57.54;100415.16;10200489;28;96669;-86
2023/10/09 13:41:04;;;;;;;6.57;2.07;;;14.90;69.40;;;13.61;59.20;100429.38;10214416;28;96565;-87
2023/10/09 13:46:12;;;;;;;2.85;1.45;;;14.90;70.40;;;13.56;60.29;100432.63;10212238;28;97976;-86
2023/10/09 13:51:19;;;;;;;4.10;1.30;;;14.80;71.20;;;13.52;62.28;100415.31;10205220;28;96701;-86
2023/10/09 13:56:27;;;;;;;2.30;0.90;;;14.80;72.80;;;13.44;62.10;100409.22;10228572;28;96963;-87
2023/10/09 14:01:32;;;;;;;3.00;1.50;;;14.70;73.30;;;13.37;63.21;100391.28;10162121;28;97411;-86
2023/10/09 14:06:37;;;;;;;2.47;1.00;;;14.60;73.10;;;13.33;64.27;100389.97;10168379;28;96573;-86
2023/10/09 14:11:44;;;;;;;3.83;1.47;;;14.60;73.80;;;13.28;66.25;100367.50;10197220;28;97933;-86
2023/10/09 14:16:47;;;;;;;2.43;1.27;;;14.60;75.10;;;13.19;66.78;100365.88;10198372;28;98993;-85
2023/10/09 14:21:51;;;;;;;3.60;1.47;;;14.50;75.20;;;13.15;67.62;100360.06;10228939;28;96610;-86
2023/10/09 14:26:56;;;;;;;7.27;1.83;;;14.50;76.10;;;13.10;68.85;100379.28;10186104;28;96444;-85
2023/10/09 14:32:00;;;;;;;7.57;2.33;;;14.50;77.10;;;13.03;69.92;100374.84;10221510;28;97366;-86
2023/10/09 14:37:06;;;;;;;2.47;1.20;;;14.40;77.90;;;12.91;71.61;100385.13;10204055;28;96677;-85
2023/10/09 14:42:10;;;;;;;4.23;1.47;;;14.20;79.50;;;12.78;72.14;100384.88;10218983;28;96590;-85
2023/10/09 14:47:18;;;;;;;3.20;1.30;;;14.00;80.00;;;12.70;71.97;100398.25;10207551;28;98310;-86
2023/10/09 14:52:24;;;;;;;2.93;1.20;;;13.90;80.20;;;12.59;72.76;100376.34;10231777;28;99001;-85
2023/10/09 14:57:27;;;;;;;4.57;1.50;;;13.90;80.80;;;12.54;73.75;100369.88;10199677;28;96695;-85
2023/10/09 15:02:31;;;;;;;4.10;2.10;;;13.80;82.00;;;12.41;73.62;100370.44;10196892;28;96569;-85
2023/10/09 15:07:38;;;;;;;3.83;2.23;;;13.70;81.70;;;12.25;75.33;100370.53;10198082;28;97840;-85
2023/10/09 15:12:48;;;;;;;3.83;1.77;;;13.60;82.20;;;12.16;75.13;100359.09;10213771;28;97268;-85
2023/10/09 15:17:52;;;;;;;3.50;1.80;;;13.50;82.30;;;12.07;75.29;100367.31;10231010;28;96625;-85
2023/10/09 15:22:56;;;;;;;4.13;1.30;;;13.50;82.60;;;11.99;76.11;100376.97;10201111;28;96851;-84
2023/10/09 15:28:02;;;;;;;6.47;1.90;;;13.40;83.00;;;11.93;77.35;100364.34;10214213;28;96626;-85
2023/10/09 15:33:08;;;;;;;6.30;2.37;;;13.30;83.50;;;11.90;78.89;100353.22;10216911;28;96768;-85
2023/10/09 15:38:13;;;;;;;4.00;2.13;;;13.30;84.30;;;11.89;79.60;100351.56;10192243;28;96537;-85
2023/10/09 15:43:17;;;;;;;6.53;1.77;;;13.30;85.70;;;11.87;79.38;100356.22;10207607;28;98261;-85
2023/10/09 15:48:21;;;;;;;3.00;1.40;;;13.20;85.30;;;11.84;80.00;100321.97;10190528;28;97477;-84
2023/10/09 15:53:25;;;;;;;3.90;1.80;;;13.20;86.70;;;11.78;79.71;100331.44;10203302;28;97087;-85
2023/10/09 15:58:29;;;;;;;9.37;3.37;;;13.20;86.10;;;11.74;80.04;100344.25;10222009;28;96675;-85
2023/10/09 16:03:33;;;;;;;13.03;5.93;;;13.10;86.40;;;11.66;80.17;100343.47;10208429;28;96612;-85
2023/10/09 16:08:47;;;;;;;9.80;4.13;;;13.10;87.00;;;11.62;81.16;100347.44;10211289;28;97593;-85
2023/10/09 16:13:53;;;;;;;5.03;2.43;;;12.90;87.70;;;11.56;82.55;100348.97;10205822;28;97988;-85
2023/10/09 16:18:57;;;;;;;8.00;4.43;;;12.90;88.40;;;11.49;83.63;100351.47;10198533;28;97574;-85
2023/10/09 16:24:01;;;;;;;8.27;4.37;;;12.80;89.20;;;11.50;83.70;100345.16;10198380;28;97009;-86
2023/10/09 16:29:12;;;;;;;5.07;2.43;;;12.80;89.80;;;11.46;84.47;100351.84;10179919;28;97366;-86
2023/10/09 16:34:16;;;;;;;5.25;2.95;;;12.80;89.70;;;11.46;85.16;100367.78;10186582;28;97449;-85
2023/10/09 16:39:22;;;;;;;4.77;2.03;;;12.80;90.20;;;11.41;85.99;100372.78;10184703;28;96892;-85
2023/10/09 16:44:26;;;;;;;4.87;1.83;;;12.80;90.30;;;11.41;86.55;100378.13;10217537;28;96752;-85
2023/10/09 16:49:31;;;;;;;6.40;2.47;;;12.80;90.60;;;11.38;87.35;100373.13;10205663;28;97794;-85
2023/10/09 16:54:36;;;;;;;5.90;2.10;;;12.70;90.70;;;11.34;87.71;100369.16;10177763;28;97823;-85
2023/10/09 16:59:41;;;;;;;8.33;5.27;;;12.70;90.90;;;11.30;88.32;100375.78;10191037;28;96720;-85
2023/10/09 17:04:46;;;;;;;30.03;12.30;;;12.60;91.20;;;11.28;89.18;100382.31;10199471;28;97597;-85
2023/10/09 17:09:50;;;;;;;224.87;74.17;;;12.60;91.30;;;11.25;89.51;100373.63;10188934;28;98519;-84
2023/10/09 17:14:55;;;;;;;77.20;28.60;;;12.60;91.50;;;11.25;89.79;100370.16;10173167;28;97938;-85
2023/10/09 17:20:10;;;;;;;17.57;9.70;;;12.60;91.60;;;11.29;89.82;100376.81;10218109;28;98392;-85
2023/10/09 17:25:16;;;;;;;15.70;8.30;;;12.60;91.90;;;11.34;89.74;100369.16;10241905;28;96852;-85
2023/10/09 17:30:20;;;;;;;10.23;5.27;;;12.70;91.70;;;11.37;89.90;100360.81;10199698;28;97520;-85
2023/10/09 17:35:24;;;;;;;6.43;3.80;;;12.70;91.80;;;11.46;89.83;100361.66;10218870;28;97515;-85
2023/10/09 17:40:27;;;;;;;6.10;3.30;;;12.70;92.10;;;11.44;90.40;100366.28;10197399;28;96743;-85
2023/10/09 17:45:41;;;;;;;6.30;2.90;;;12.70;92.60;;;11.44;90.01;100355.63;10195080;28;96995;-85
2023/10/09 17:50:45;;;;;;;9.17;5.90;;;12.70;92.20;;;11.45;90.65;100363.44;10206632;28;96600;-85
2023/10/09 17:55:54;;;;;;;6.83;3.17;;;12.70;92.40;;;11.49;90.71;100348.81;10208599;28;97765;-85
2023/10/09 18:00:58;;;;;;;5.83;2.73;;;12.80;92.70;;;11.52;90.58;100348.50;10160484;28;97524;-86
2023/10/09 18:06:03;;;;;;;7.60;3.37;;;12.90;92.60;;;11.59;91.05;100353.13;10210720;28;97982;-85
2023/10/09 18:11:07;;;;;;;6.80;3.27;;;12.90;92.70;;;11.63;91.25;100335.78;10178043;28;96757;-86
2023/10/09 18:16:21;;;;;;;6.50;3.00;;;12.90;92.80;;;11.65;91.16;100341.81;10222603;28;97812;-85
2023/10/09 18:21:27;;;;;;;11.13;5.30;;;13.00;92.90;;;11.65;91.52;100357.78;10190608;28;98711;-86
2023/10/09 18:26:31;;;;;;;6.07;3.10;;;13.00;92.90;;;11.53;90.77;100363.44;10174471;28;97467;-86
2023/10/09 18:31:38;;;;;;;5.50;2.50;;;13.00;92.90;;;11.47;89.77;100361.47;10206714;28;96953;-86
2023/10/09 18:36:42;;;;;;;5.10;2.47;;;12.90;93.10;;;11.46;89.00;100364.31;10215071;28;97198;-85
2023/10/09 18:41:48;;;;;;;5.43;2.20;;;12.90;92.90;;;11.41;88.47;100367.47;10215058;28;97843;-85
2023/10/09 18:46:53;;;;;;;8.17;2.70;;;12.80;92.90;;;11.38;87.58;100373.13;10196315;28;96819;-86
2023/10/09 18:51:59;;;;;;;7.40;2.40;;;12.80;92.80;;;11.29;87.13;100379.47;10212716;28;96689;-86
2023/10/09 18:57:03;;;;;;;5.83;2.27;;;12.80;92.70;;;11.22;86.62;100376.66;10202946;28;96616;-86
2023/10/09 19:02:11;;;;;;;4.70;2.20;;;12.70;92.70;;;11.18;87.17;100377.97;10199304;28;97437;-86
2023/10/09 19:07:14;;;;;;;5.47;1.90;;;12.60;92.80;;;11.13;87.71;100384.78;10207141;28;97591;-85
2023/10/09 19:12:18;;;;;;;5.57;2.30;;;12.60;92.90;;;11.07;87.72;100390.78;10191537;28;96738;-85
2023/10/09 19:17:22;;;;;;;4.27;2.23;;;12.50;93.00;;;10.99;88.39;100389.78;10207239;28;96724;-84
2023/10/09 19:22:26;;;;;;;4.40;1.67;;;12.40;93.10;;;10.88;89.10;100408.72;10213668;28;98464;-85
2023/10/09 19:27:30;;;;;;;6.77;2.60;;;12.30;93.30;;;10.70;90.72;100408.03;10197628;28;96728;-84
2023/10/09 19:32:34;;;;;;;4.37;2.00;;;12.20;93.60;;;10.55;91.42;100422.91;10201628;28;96550;-85
2023/10/09 19:37:38;;;;;;;7.33;2.47;;;12.00;94.20;;;10.30;93.26;100414.88;10209982;28;96602;-84
2023/10/09 19:42:42;;;;;;;5.50;2.20;;;11.80;94.40;;;10.14;94.38;100420.94;10204139;28;96554;-85
2023/10/09 19:47:50;;;;;;;5.20;2.30;;;11.60;94.70;;;10.02;95.85;100419.56;10215287;28;97632;-86
2023/10/09 19:52:55;;;;;;;6.83;2.33;;;11.50;95.10;;;9.95;97.06;100429.13;10232900;28;96754;-86
2023/10/09 19:58:00;;;;;;;5.70;2.10;;;11.40;95.40;;;9.88;97.68;100447.50;10195256;28;97386;-86
2023/10/09 20:03:04;;;;;;;3.90;1.90;;;11.30;95.70;;;9.80;98.59;100431.56;10226810;28;96668;-86
2023/10/09 20:08:08;;;;;;;3.50;2.10;;;11.30;96.00;;;9.71;99.28;100440.44;10226644;28;96669;-86
2023/10/09 20:13:12;;;;;;;6.10;2.03;;;11.20;96.40;;;9.63;99.51;100440.41;10204668;28;96796;-85
2023/10/09 20:18:15;;;;;;;6.70;2.63;;;11.10;96.90;;;9.55;99.82;100435.88;10219258;28;97660;-85
2023/10/09 20:23:20;;;;;;;6.70;2.30;;;11.00;97.00;;;9.53;99.98;100439.66;10230581;28;96515;-85
2023/10/09 20:28:25;;;;;;;4.70;2.07;;;11.00;97.30;;;9.47;99.74;100427.84;10184802;28;97465;-85
2023/10/09 20:33:33;;;;;;;6.13;2.40;;;10.90;97.50;;;9.45;99.99;100436.94;10201297;28;96572;-85
2023/10/09 20:38:40;;;;;;;7.80;2.20;;;10.90;97.60;;;9.45;100.00;100436.94;10174313;28;96756;-85
2023/10/09 20:43:44;;;;;;;5.83;2.80;;;10.90;97.70;;;9.46;100.00;100426.19;10204290;28;98417;-85
2023/10/09 20:48:48;;;;;;;5.50;2.40;;;10.90;98.10;;;9.46;100.00;100441.28;10216985;28;97598;-85
2023/10/09 20:53:51;;;;;;;5.20;2.40;;;10.90;98.30;;;9.41;100.00;100451.50;10226069;28;97504;-85
2023/10/09 20:58:55;;;;;;;8.20;2.67;;;10.90;98.70;;;9.30;100.00;100458.75;10188267;28;97392;-85
2023/10/09 21:03:59;;;;;;;4.40;2.10;;;10.80;98.80;;;9.12;100.00;100460.56;10195288;28;97638;-86
2023/10/09 21:09:06;;;;;;;3.67;2.20;;;10.60;98.90;;;9.01;100.00;100479.34;10228004;28;97821;-86
2023/10/09 21:14:11;;;;;;;4.60;1.60;;;10.50;99.40;;;8.91;100.00;100483.88;10213306;28;96633;-85
2023/10/09 21:19:14;;;;;;;3.60;1.73;;;10.40;99.50;;;8.84;100.00;100489.78;10213254;28;96632;-85
2023/10/09 21:24:18;;;;;;;3.20;1.40;;;10.30;99.60;;;8.80;100.00;100483.09;10166674;28;96614;-85
2023/10/09 21:29:22;;;;;;;3.00;1.33;;;10.30;99.80;;;8.79;100.00;100486.72;10200993;28;96720;-86
2023/10/09 21:34:26;;;;;;;4.17;1.80;;;10.30;99.90;;;8.74;100.00;100483.69;10191771;28;96604;-85
2023/10/09 21:39:30;;;;;;;5.03;1.50;;;10.30;99.90;;;8.79;100.00;100491.19;10173841;28;96507;-85
2023/10/09 21:44:34;;;;;;;3.77;1.73;;;10.30;99.90;;;8.75;100.00;100489.81;10197570;28;97434;-86
2023/10/09 21:49:38;;;;;;;3.80;1.57;;;10.20;99.90;;;8.75;100.00;100474.75;10183955;28;97310;-85
2023/10/09 21:54:42;;;;;;;3.50;1.10;;;10.20;99.90;;;8.72;100.00;100476.88;10184951;28;96632;-85
2023/10/09 21:59:46;;;;;;;3.97;1.30;;;10.20;99.90;;;8.71;100.00;100484.00;10209487;28;97376;-85
2023/10/09 22:04:50;;;;;;;3.97;1.40;;;10.20;99.90;;;8.74;100.00;100491.63;10210669;28;96998;-85
2023/10/09 22:09:53;;;;;;;2.50;1.30;;;10.20;99.90;;;8.76;100.00;100484.41;10206608;28;96550;-85
2023/10/09 22:15:01;;;;;;;3.77;1.33;;;10.20;99.90;;;8.78;100.00;100493.03;10211350;28;96831;-85
2023/10/09 22:20:05;;;;;;;3.33;1.63;;;10.30;99.90;;;8.66;100.00;100483.63;10189122;28;96631;-85
2023/10/09 22:25:11;;;;;;;4.43;1.90;;;10.20;99.90;;;8.60;100.00;100470.97;10169538;28;97625;-85
2023/10/09 22:30:18;;;;;;;5.37;1.60;;;10.10;99.90;;;8.62;100.00;100476.94;10212616;28;97343;-85
2023/10/09 22:35:29;;;;;;;6.00;1.67;;;10.10;99.90;;;8.62;100.00;100479.59;10172731;28;96723;-85
2023/10/09 22:40:40;;;;;;;3.97;2.10;;;10.10;99.90;;;8.67;100.00;100450.00;10175588;28;96543;-85
2023/10/09 22:45:48;;;;;;;2.65;1.27;;;10.10;99.90;;;8.68;100.00;100457.78;10173496;28;96645;-85
2023/10/09 22:51:09;;;;;;;3.63;1.63;;;10.20;99.90;;;8.69;100.00;100448.84;10199135;28;99005;-85
2023/10/09 22:56:15;;;;;;;3.90;1.60;;;10.20;99.90;;;8.70;100.00;100450.56;10178926;28;96546;-85
2023/10/09 23:01:26;;;;;;;4.27;1.77;;;10.20;99.90;;;8.73;100.00;100439.63;10218204;28;98520;-85